sensor_id;sensor_type;location;lat;lon;timestamp;temperature;humidity
53254;DHT22;39148;53.332;6.922;2022-08-21T00:01:12;21.90;77.50
53254;DHT22;39148;53.332;6.922;2022-08-21T00:03:40;21.90;78.20
53254;DHT22;39148;53.332;6.922;2022-08-21T00:06:06;21.90;77.60
53254;DHT22;39148;53.332;6.922;2022-08-21T00:08:32;21.80;77.60
53254;DHT22;39148;53.332;6.922;2022-08-21T00:10:58;21.90;77.60
53254;DHT22;39148;53.332;6.922;2022-08-21T00:13:23;21.90;77.60
53254;DHT22;39148;53.332;6.922;2022-08-21T00:15:49;21.80;77.60
53254;DHT22;39148;53.332;6.922;2022-08-21T00:18:16;21.80;77.70
53254;DHT22;39148;53.332;6.922;2022-08-21T00:20:43;21.80;77.90
53254;DHT22;39148;53.332;6.922;2022-08-21T00:23:10;21.80;77.90
53254;DHT22;39148;53.332;6.922;2022-08-21T00:25:35;21.80;77.80
53254;DHT22;39148;53.332;6.922;2022-08-21T00:28:03;21.70;77.80
53254;DHT22;39148;53.332;6.922;2022-08-21T00:30:29;21.80;77.70
53254;DHT22;39148;53.332;6.922;2022-08-21T00:32:57;21.70;77.90
53254;DHT22;39148;53.332;6.922;2022-08-21T00:35:27;21.60;77.90
53254;DHT22;39148;53.332;6.922;2022-08-21T00:37:53;21.60;77.80
53254;DHT22;39148;53.332;6.922;2022-08-21T00:40:22;21.70;77.90
53254;DHT22;39148;53.332;6.922;2022-08-21T00:42:48;21.60;77.90
53254;DHT22;39148;53.332;6.922;2022-08-21T00:45:16;21.60;77.90
53254;DHT22;39148;53.332;6.922;2022-08-21T00:47:42;21.50;77.80
53254;DHT22;39148;53.332;6.922;2022-08-21T00:50:09;21.60;77.90
53254;DHT22;39148;53.332;6.922;2022-08-21T00:52:37;21.50;77.90
53254;DHT22;39148;53.332;6.922;2022-08-21T00:55:06;21.60;78.00
53254;DHT22;39148;53.332;6.922;2022-08-21T00:57:40;21.60;77.90
53254;DHT22;39148;53.332;6.922;2022-08-21T01:00:10;21.50;78.20
53254;DHT22;39148;53.332;6.922;2022-08-21T01:02:36;21.50;77.80
53254;DHT22;39148;53.332;6.922;2022-08-21T01:05:03;21.50;78.00
53254;DHT22;39148;53.332;6.922;2022-08-21T01:07:29;21.40;77.80
53254;DHT22;39148;53.332;6.922;2022-08-21T01:09:55;21.40;78.00
53254;DHT22;39148;53.332;6.922;2022-08-21T01:12:21;21.50;78.10
53254;DHT22;39148;53.332;6.922;2022-08-21T01:14:48;21.50;78.20
53254;DHT22;39148;53.332;6.922;2022-08-21T01:17:15;21.40;78.00
53254;DHT22;39148;53.332;6.922;2022-08-21T01:19:42;21.40;78.30
53254;DHT22;39148;53.332;6.922;2022-08-21T01:22:09;21.30;78.00
53254;DHT22;39148;53.332;6.922;2022-08-21T01:24:35;21.40;78.20
53254;DHT22;39148;53.332;6.922;2022-08-21T01:27:02;21.30;78.10
53254;DHT22;39148;53.332;6.922;2022-08-21T01:29:39;21.20;78.20
53254;DHT22;39148;53.332;6.922;2022-08-21T01:32:11;21.40;78.50
53254;DHT22;39148;53.332;6.922;2022-08-21T01:34:39;21.20;78.30
53254;DHT22;39148;53.332;6.922;2022-08-21T01:37:06;21.30;78.30
53254;DHT22;39148;53.332;6.922;2022-08-21T01:39:32;21.20;78.30
53254;DHT22;39148;53.332;6.922;2022-08-21T01:41:59;21.20;78.70
53254;DHT22;39148;53.332;6.922;2022-08-21T01:44:25;21.20;78.20
53254;DHT22;39148;53.332;6.922;2022-08-21T01:46:51;21.20;78.30
53254;DHT22;39148;53.332;6.922;2022-08-21T01:49:17;21.10;78.20
53254;DHT22;39148;53.332;6.922;2022-08-21T01:51:43;21.20;78.30
53254;DHT22;39148;53.332;6.922;2022-08-21T01:54:09;21.10;78.20
53254;DHT22;39148;53.332;6.922;2022-08-21T01:56:41;21.10;78.20
53254;DHT22;39148;53.332;6.922;2022-08-21T01:59:08;21.20;78.60
53254;DHT22;39148;53.332;6.922;2022-08-21T02:01:34;21.10;78.30
53254;DHT22;39148;53.332;6.922;2022-08-21T02:04:00;21.20;78.40
53254;DHT22;39148;53.332;6.922;2022-08-21T02:06:26;21.10;78.20
53254;DHT22;39148;53.332;6.922;2022-08-21T02:08:52;21.00;78.30
53254;DHT22;39148;53.332;6.922;2022-08-21T02:11:19;21.10;78.30
53254;DHT22;39148;53.332;6.922;2022-08-21T02:13:45;21.00;78.40
53254;DHT22;39148;53.332;6.922;2022-08-21T02:16:11;21.00;78.30
53254;DHT22;39148;53.332;6.922;2022-08-21T02:18:37;21.00;78.40
53254;DHT22;39148;53.332;6.922;2022-08-21T02:21:04;21.00;78.50
53254;DHT22;39148;53.332;6.922;2022-08-21T02:23:30;21.00;78.50
53254;DHT22;39148;53.332;6.922;2022-08-21T02:26:01;20.90;78.40
53254;DHT22;39148;53.332;6.922;2022-08-21T02:28:27;20.90;77.30
53254;DHT22;39148;53.332;6.922;2022-08-21T02:30:53;21.00;78.40
53254;DHT22;39148;53.332;6.922;2022-08-21T02:33:19;20.90;78.50
53254;DHT22;39148;53.332;6.922;2022-08-21T02:35:47;20.80;78.40
53254;DHT22;39148;53.332;6.922;2022-08-21T02:38:16;20.90;78.60
53254;DHT22;39148;53.332;6.922;2022-08-21T02:40:44;20.80;78.60
53254;DHT22;39148;53.332;6.922;2022-08-21T02:43:10;20.90;78.60
53254;DHT22;39148;53.332;6.922;2022-08-21T02:45:37;20.80;78.50
53254;DHT22;39148;53.332;6.922;2022-08-21T02:48:09;20.80;78.60
53254;DHT22;39148;53.332;6.922;2022-08-21T02:50:41;20.80;78.70
53254;DHT22;39148;53.332;6.922;2022-08-21T02:53:08;20.80;79.20
53254;DHT22;39148;53.332;6.922;2022-08-21T02:55:36;20.70;78.60
53254;DHT22;39148;53.332;6.922;2022-08-21T02:58:04;20.80;78.70
53254;DHT22;39148;53.332;6.922;2022-08-21T03:00:31;20.80;78.60
53254;DHT22;39148;53.332;6.922;2022-08-21T03:02:58;20.70;79.00
53254;DHT22;39148;53.332;6.922;2022-08-21T03:05:26;20.70;78.70
53254;DHT22;39148;53.332;6.922;2022-08-21T03:07:52;20.50;78.60
53254;DHT22;39148;53.332;6.922;2022-08-21T03:10:18;20.60;78.60
53254;DHT22;39148;53.332;6.922;2022-08-21T03:12:45;20.60;78.70
53254;DHT22;39148;53.332;6.922;2022-08-21T03:15:13;20.70;78.70
53254;DHT22;39148;53.332;6.922;2022-08-21T03:17:39;20.70;78.80
53254;DHT22;39148;53.332;6.922;2022-08-21T03:20:06;20.60;78.50
53254;DHT22;39148;53.332;6.922;2022-08-21T03:22:32;20.50;78.40
53254;DHT22;39148;53.332;6.922;2022-08-21T03:24:58;20.60;78.60
53254;DHT22;39148;53.332;6.922;2022-08-21T03:27:25;20.60;78.80
53254;DHT22;39148;53.332;6.922;2022-08-21T03:29:52;20.50;78.70
53254;DHT22;39148;53.332;6.922;2022-08-21T03:32:18;20.50;78.80
53254;DHT22;39148;53.332;6.922;2022-08-21T03:34:45;20.50;78.70
53254;DHT22;39148;53.332;6.922;2022-08-21T03:37:12;20.50;78.80
53254;DHT22;39148;53.332;6.922;2022-08-21T03:39:37;20.50;78.90
53254;DHT22;39148;53.332;6.922;2022-08-21T03:42:03;20.50;78.70
53254;DHT22;39148;53.332;6.922;2022-08-21T03:44:30;20.40;78.80
53254;DHT22;39148;53.332;6.922;2022-08-21T03:46:57;20.40;78.70
53254;DHT22;39148;53.332;6.922;2022-08-21T03:49:23;20.40;78.90
53254;DHT22;39148;53.332;6.922;2022-08-21T03:51:49;20.30;78.80
53254;DHT22;39148;53.332;6.922;2022-08-21T03:54:15;20.50;78.80
53254;DHT22;39148;53.332;6.922;2022-08-21T03:56:41;20.30;78.70
53254;DHT22;39148;53.332;6.922;2022-08-21T03:59:07;20.40;78.80
53254;DHT22;39148;53.332;6.922;2022-08-21T04:01:33;20.40;78.90
53254;DHT22;39148;53.332;6.922;2022-08-21T04:03:59;20.30;78.80
53254;DHT22;39148;53.332;6.922;2022-08-21T04:06:25;20.40;78.90
53254;DHT22;39148;53.332;6.922;2022-08-21T04:08:52;20.30;78.90
53254;DHT22;39148;53.332;6.922;2022-08-21T04:11:19;20.30;79.00
53254;DHT22;39148;53.332;6.922;2022-08-21T04:13:44;20.30;78.80
53254;DHT22;39148;53.332;6.922;2022-08-21T04:16:10;20.30;78.90
53254;DHT22;39148;53.332;6.922;2022-08-21T04:18:36;20.30;78.90
53254;DHT22;39148;53.332;6.922;2022-08-21T04:21:03;20.20;78.90
53254;DHT22;39148;53.332;6.922;2022-08-21T04:23:29;20.20;78.80
53254;DHT22;39148;53.332;6.922;2022-08-21T04:25:56;20.20;78.90
53254;DHT22;39148;53.332;6.922;2022-08-21T04:28:24;20.20;79.00
53254;DHT22;39148;53.332;6.922;2022-08-21T04:30:51;20.20;79.10
53254;DHT22;39148;53.332;6.922;2022-08-21T04:33:18;20.10;79.00
53254;DHT22;39148;53.332;6.922;2022-08-21T04:35:44;20.10;79.00
53254;DHT22;39148;53.332;6.922;2022-08-21T04:38:10;20.10;78.90
53254;DHT22;39148;53.332;6.922;2022-08-21T04:40:36;20.10;78.90
53254;DHT22;39148;53.332;6.922;2022-08-21T04:43:04;20.10;78.90
53254;DHT22;39148;53.332;6.922;2022-08-21T04:45:36;20.10;79.10
53254;DHT22;39148;53.332;6.922;2022-08-21T04:48:05;20.00;77.90
53254;DHT22;39148;53.332;6.922;2022-08-21T04:50:36;20.00;79.10
53254;DHT22;39148;53.332;6.922;2022-08-21T04:53:10;20.10;79.30
53254;DHT22;39148;53.332;6.922;2022-08-21T04:55:38;20.10;79.30
53254;DHT22;39148;53.332;6.922;2022-08-21T04:58:11;20.00;79.20
53254;DHT22;39148;53.332;6.922;2022-08-21T05:00:39;20.10;79.30
53254;DHT22;39148;53.332;6.922;2022-08-21T05:03:07;20.00;79.20
53254;DHT22;39148;53.332;6.922;2022-08-21T05:05:33;20.00;79.20
53254;DHT22;39148;53.332;6.922;2022-08-21T05:08:01;20.00;79.10
53254;DHT22;39148;53.332;6.922;2022-08-21T05:10:27;20.00;79.20
53254;DHT22;39148;53.332;6.922;2022-08-21T05:12:54;19.90;79.20
53254;DHT22;39148;53.332;6.922;2022-08-21T05:15:20;20.00;79.30
53254;DHT22;39148;53.332;6.922;2022-08-21T05:17:46;19.90;79.10
53254;DHT22;39148;53.332;6.922;2022-08-21T05:20:13;19.90;79.10
53254;DHT22;39148;53.332;6.922;2022-08-21T05:22:39;19.90;79.20
53254;DHT22;39148;53.332;6.922;2022-08-21T05:25:07;19.90;79.20
53254;DHT22;39148;53.332;6.922;2022-08-21T05:27:32;20.00;79.30
53254;DHT22;39148;53.332;6.922;2022-08-21T05:29:58;19.90;79.20
53254;DHT22;39148;53.332;6.922;2022-08-21T05:32:25;19.80;79.20
53254;DHT22;39148;53.332;6.922;2022-08-21T05:34:53;19.80;79.20
53254;DHT22;39148;53.332;6.922;2022-08-21T05:37:19;19.90;79.30
53254;DHT22;39148;53.332;6.922;2022-08-21T05:39:45;19.80;79.20
53254;DHT22;39148;53.332;6.922;2022-08-21T05:42:10;19.80;79.20
53254;DHT22;39148;53.332;6.922;2022-08-21T05:44:36;19.90;79.20
53254;DHT22;39148;53.332;6.922;2022-08-21T05:47:07;19.80;79.20
53254;DHT22;39148;53.332;6.922;2022-08-21T05:49:34;19.90;79.40
53254;DHT22;39148;53.332;6.922;2022-08-21T05:52:00;19.80;79.30
53254;DHT22;39148;53.332;6.922;2022-08-21T05:54:27;19.80;79.40
53254;DHT22;39148;53.332;6.922;2022-08-21T05:56:53;19.70;79.30
53254;DHT22;39148;53.332;6.922;2022-08-21T05:59:18;19.70;79.20
53254;DHT22;39148;53.332;6.922;2022-08-21T06:01:44;19.80;79.30
53254;DHT22;39148;53.332;6.922;2022-08-21T06:04:11;19.80;79.30
53254;DHT22;39148;53.332;6.922;2022-08-21T06:06:37;19.80;79.40
53254;DHT22;39148;53.332;6.922;2022-08-21T06:09:04;19.70;79.30
53254;DHT22;39148;53.332;6.922;2022-08-21T06:11:30;19.80;79.50
53254;DHT22;39148;53.332;6.922;2022-08-21T06:13:56;19.70;79.50
53254;DHT22;39148;53.332;6.922;2022-08-21T06:16:22;19.80;79.40
53254;DHT22;39148;53.332;6.922;2022-08-21T06:18:48;19.70;79.30
53254;DHT22;39148;53.332;6.922;2022-08-21T06:21:14;19.80;79.50
53254;DHT22;39148;53.332;6.922;2022-08-21T06:23:40;19.70;79.50
53254;DHT22;39148;53.332;6.922;2022-08-21T06:26:07;19.70;80.00
53254;DHT22;39148;53.332;6.922;2022-08-21T06:28:34;19.70;79.60
53254;DHT22;39148;53.332;6.922;2022-08-21T06:31:00;19.60;79.60
53254;DHT22;39148;53.332;6.922;2022-08-21T06:33:26;19.70;79.60
53254;DHT22;39148;53.332;6.922;2022-08-21T06:35:51;19.60;79.50
53254;DHT22;39148;53.332;6.922;2022-08-21T06:38:17;19.60;79.50
53254;DHT22;39148;53.332;6.922;2022-08-21T06:40:43;19.60;79.60
53254;DHT22;39148;53.332;6.922;2022-08-21T06:43:11;19.70;79.60
53254;DHT22;39148;53.332;6.922;2022-08-21T06:45:37;19.80;79.90
53254;DHT22;39148;53.332;6.922;2022-08-21T06:48:04;19.70;79.70
53254;DHT22;39148;53.332;6.922;2022-08-21T06:50:30;19.80;79.70
53254;DHT22;39148;53.332;6.922;2022-08-21T06:53:04;19.70;79.60
53254;DHT22;39148;53.332;6.922;2022-08-21T06:55:30;19.70;78.80
53254;DHT22;39148;53.332;6.922;2022-08-21T06:57:56;19.60;79.70
53254;DHT22;39148;53.332;6.922;2022-08-21T07:00:22;19.70;79.80
53254;DHT22;39148;53.332;6.922;2022-08-21T07:02:48;19.70;80.30
53254;DHT22;39148;53.332;6.922;2022-08-21T07:05:13;19.60;79.80
53254;DHT22;39148;53.332;6.922;2022-08-21T07:07:39;19.70;79.70
53254;DHT22;39148;53.332;6.922;2022-08-21T07:10:05;19.70;79.70
53254;DHT22;39148;53.332;6.922;2022-08-21T07:12:31;19.70;79.70
53254;DHT22;39148;53.332;6.922;2022-08-21T07:14:57;19.70;79.90
53254;DHT22;39148;53.332;6.922;2022-08-21T07:17:23;19.60;80.00
53254;DHT22;39148;53.332;6.922;2022-08-21T07:19:49;19.60;79.80
53254;DHT22;39148;53.332;6.922;2022-08-21T07:22:18;19.70;80.10
53254;DHT22;39148;53.332;6.922;2022-08-21T07:24:46;19.70;80.20
53254;DHT22;39148;53.332;6.922;2022-08-21T07:27:12;19.70;80.00
53254;DHT22;39148;53.332;6.922;2022-08-21T07:29:38;19.80;80.20
53254;DHT22;39148;53.332;6.922;2022-08-21T07:32:04;19.80;80.10
53254;DHT22;39148;53.332;6.922;2022-08-21T07:34:30;19.80;79.90
53254;DHT22;39148;53.332;6.922;2022-08-21T07:36:57;19.80;79.90
53254;DHT22;39148;53.332;6.922;2022-08-21T07:39:23;19.80;80.30
53254;DHT22;39148;53.332;6.922;2022-08-21T07:41:49;19.80;80.00
53254;DHT22;39148;53.332;6.922;2022-08-21T07:44:14;19.70;80.00
53254;DHT22;39148;53.332;6.922;2022-08-21T07:46:40;19.80;80.10
53254;DHT22;39148;53.332;6.922;2022-08-21T07:49:06;19.70;80.00
53254;DHT22;39148;53.332;6.922;2022-08-21T07:51:32;19.90;80.10
53254;DHT22;39148;53.332;6.922;2022-08-21T07:53:59;19.90;80.10
53254;DHT22;39148;53.332;6.922;2022-08-21T07:56:26;19.80;79.90
53254;DHT22;39148;53.332;6.922;2022-08-21T07:58:53;20.00;80.10
53254;DHT22;39148;53.332;6.922;2022-08-21T08:01:19;19.90;80.10
53254;DHT22;39148;53.332;6.922;2022-08-21T08:03:46;19.90;80.00
53254;DHT22;39148;53.332;6.922;2022-08-21T08:06:11;20.00;80.10
53254;DHT22;39148;53.332;6.922;2022-08-21T08:08:42;20.00;79.30
53254;DHT22;39148;53.332;6.922;2022-08-21T08:11:09;20.00;79.90
53254;DHT22;39148;53.332;6.922;2022-08-21T08:13:45;20.00;80.10
53254;DHT22;39148;53.332;6.922;2022-08-21T08:16:12;20.00;80.10
53254;DHT22;39148;53.332;6.922;2022-08-21T08:18:38;20.00;79.80
53254;DHT22;39148;53.332;6.922;2022-08-21T08:21:04;20.00;79.80
53254;DHT22;39148;53.332;6.922;2022-08-21T08:23:31;20.10;79.80
53254;DHT22;39148;53.332;6.922;2022-08-21T08:25:58;19.90;79.80
53254;DHT22;39148;53.332;6.922;2022-08-21T08:28:24;20.10;80.00
53254;DHT22;39148;53.332;6.922;2022-08-21T08:30:50;20.20;79.80
53254;DHT22;39148;53.332;6.922;2022-08-21T08:33:16;20.10;79.70
53254;DHT22;39148;53.332;6.922;2022-08-21T08:35:47;20.10;79.60
53254;DHT22;39148;53.332;6.922;2022-08-21T08:38:14;20.20;79.80
53254;DHT22;39148;53.332;6.922;2022-08-21T08:43:30;20.20;78.40
53254;DHT22;39148;53.332;6.922;2022-08-21T08:45:58;20.30;79.70
53254;DHT22;39148;53.332;6.922;2022-08-21T08:48:47;20.20;79.60
53254;DHT22;39148;53.332;6.922;2022-08-21T08:51:32;20.30;80.00
53254;DHT22;39148;53.332;6.922;2022-08-21T08:54:04;20.30;79.60
53254;DHT22;39148;53.332;6.922;2022-08-21T08:56:34;20.30;79.50
53254;DHT22;39148;53.332;6.922;2022-08-21T08:59:13;20.30;79.40
53254;DHT22;39148;53.332;6.922;2022-08-21T09:01:39;20.30;79.60
53254;DHT22;39148;53.332;6.922;2022-08-21T09:04:05;20.40;79.20
53254;DHT22;39148;53.332;6.922;2022-08-21T09:06:50;20.40;79.20
53254;DHT22;39148;53.332;6.922;2022-08-21T09:09:25;20.40;78.50
53254;DHT22;39148;53.332;6.922;2022-08-21T09:12:04;20.50;78.10
53254;DHT22;39148;53.332;6.922;2022-08-21T09:22:41;20.60;78.20
53254;DHT22;39148;53.332;6.922;2022-08-21T09:25:12;20.60;79.40
53254;DHT22;39148;53.332;6.922;2022-08-21T09:27:40;20.60;78.10
53254;DHT22;39148;53.332;6.922;2022-08-21T09:30:08;20.70;78.90
53254;DHT22;39148;53.332;6.922;2022-08-21T09:32:35;20.70;78.90
53254;DHT22;39148;53.332;6.922;2022-08-21T09:37:32;20.70;79.00
53254;DHT22;39148;53.332;6.922;2022-08-21T09:40:00;20.80;79.20
53254;DHT22;39148;53.332;6.922;2022-08-21T09:42:29;20.80;79.20
53254;DHT22;39148;53.332;6.922;2022-08-21T09:47:32;20.90;79.30
53254;DHT22;39148;53.332;6.922;2022-08-21T09:50:11;20.90;79.00
53254;DHT22;39148;53.332;6.922;2022-08-21T09:52:43;20.90;78.00
53254;DHT22;39148;53.332;6.922;2022-08-21T09:55:16;21.00;79.20
53254;DHT22;39148;53.332;6.922;2022-08-21T09:58:03;21.00;79.20
53254;DHT22;39148;53.332;6.922;2022-08-21T10:00:32;21.00;79.10
53254;DHT22;39148;53.332;6.922;2022-08-21T10:03:15;21.10;79.10
53254;DHT22;39148;53.332;6.922;2022-08-21T10:05:52;21.10;79.30
53254;DHT22;39148;53.332;6.922;2022-08-21T10:08:20;21.50;79.40
53254;DHT22;39148;53.332;6.922;2022-08-21T10:10:51;21.10;79.00
53254;DHT22;39148;53.332;6.922;2022-08-21T10:13:29;21.30;79.20
53254;DHT22;39148;53.332;6.922;2022-08-21T10:21:00;21.30;79.00
53254;DHT22;39148;53.332;6.922;2022-08-21T10:35:02;21.60;77.90
53254;DHT22;39148;53.332;6.922;2022-08-21T10:46:27;21.70;77.90
53254;DHT22;39148;53.332;6.922;2022-08-21T10:49:11;21.60;77.70
53254;DHT22;39148;53.332;6.922;2022-08-21T10:51:54;21.80;77.80
53254;DHT22;39148;53.332;6.922;2022-08-21T10:54:52;21.80;78.80
53254;DHT22;39148;53.332;6.922;2022-08-21T11:00:17;22.00;77.70
53254;DHT22;39148;53.332;6.922;2022-08-21T11:03:07;22.00;78.60
53254;DHT22;39148;53.332;6.922;2022-08-21T11:08:15;22.00;78.40
53254;DHT22;39148;53.332;6.922;2022-08-21T11:11:02;22.10;77.20
53254;DHT22;39148;53.332;6.922;2022-08-21T11:16:08;22.20;77.30
53254;DHT22;39148;53.332;6.922;2022-08-21T11:18:43;22.20;78.30
53254;DHT22;39148;53.332;6.922;2022-08-21T11:21:39;22.20;78.40
53254;DHT22;39148;53.332;6.922;2022-08-21T11:24:39;22.20;77.20
53254;DHT22;39148;53.332;6.922;2022-08-21T11:29:57;22.10;77.00
53254;DHT22;39148;53.332;6.922;2022-08-21T11:36:00;22.40;77.10
53254;DHT22;39148;53.332;6.922;2022-08-21T11:42:04;22.60;77.00
53254;DHT22;39148;53.332;6.922;2022-08-21T11:44:46;22.60;76.90
53254;DHT22;39148;53.332;6.922;2022-08-21T11:47:33;22.60;76.60
53254;DHT22;39148;53.332;6.922;2022-08-21T11:50:14;22.70;76.70
53254;DHT22;39148;53.332;6.922;2022-08-21T11:55:19;22.80;76.40
53254;DHT22;39148;53.332;6.922;2022-08-21T11:57:55;22.80;77.50
53254;DHT22;39148;53.332;6.922;2022-08-21T12:00:26;22.80;77.50
53254;DHT22;39148;53.332;6.922;2022-08-21T12:02:56;22.90;77.90
53254;DHT22;39148;53.332;6.922;2022-08-21T12:05:32;22.90;77.30
53254;DHT22;39148;53.332;6.922;2022-08-21T12:08:27;22.90;77.30
53254;DHT22;39148;53.332;6.922;2022-08-21T12:11:29;23.20;76.30
53254;DHT22;39148;53.332;6.922;2022-08-21T12:14:15;23.10;77.30
53254;DHT22;39148;53.332;6.922;2022-08-21T12:16:44;23.00;75.90
53254;DHT22;39148;53.332;6.922;2022-08-21T12:19:12;23.10;77.00
53254;DHT22;39148;53.332;6.922;2022-08-21T12:21:54;23.00;76.80
53254;DHT22;39148;53.332;6.922;2022-08-21T12:26:54;23.20;76.80
53254;DHT22;39148;53.332;6.922;2022-08-21T12:29:27;21.10;75.60
53254;DHT22;39148;53.332;6.922;2022-08-21T12:32:04;23.30;75.50
53254;DHT22;39148;53.332;6.922;2022-08-21T12:34:37;23.40;75.30
53254;DHT22;39148;53.332;6.922;2022-08-21T12:39:49;23.20;76.30
53254;DHT22;39148;53.332;6.922;2022-08-21T12:44:48;23.40;76.20
53254;DHT22;39148;53.332;6.922;2022-08-21T12:47:30;23.50;76.40
53254;DHT22;39148;53.332;6.922;2022-08-21T12:52:33;23.60;76.20
53254;DHT22;39148;53.332;6.922;2022-08-21T12:54:59;23.60;76.30
53254;DHT22;39148;53.332;6.922;2022-08-21T12:57:27;23.60;76.10
53254;DHT22;39148;53.332;6.922;2022-08-21T12:59:59;23.60;76.10
53254;DHT22;39148;53.332;6.922;2022-08-21T13:02:32;23.70;76.60
53254;DHT22;39148;53.332;6.922;2022-08-21T13:05:03;23.60;74.70
53254;DHT22;39148;53.332;6.922;2022-08-21T13:07:32;23.70;76.00
53254;DHT22;39148;53.332;6.922;2022-08-21T13:10:14;23.70;75.90
53254;DHT22;39148;53.332;6.922;2022-08-21T13:12:42;23.40;75.80
53254;DHT22;39148;53.332;6.922;2022-08-21T13:15:09;23.80;75.80
53254;DHT22;39148;53.332;6.922;2022-08-21T13:17:38;23.90;75.60
53254;DHT22;39148;53.332;6.922;2022-08-21T13:20:22;23.80;75.80
53254;DHT22;39148;53.332;6.922;2022-08-21T13:22:49;23.90;76.00
53254;DHT22;39148;53.332;6.922;2022-08-21T13:25:17;23.90;75.80
53254;DHT22;39148;53.332;6.922;2022-08-21T13:27:45;23.90;75.70
53254;DHT22;39148;53.332;6.922;2022-08-21T13:30:22;23.90;75.70
53254;DHT22;39148;53.332;6.922;2022-08-21T13:32:55;23.90;75.60
53254;DHT22;39148;53.332;6.922;2022-08-21T13:35:46;23.90;75.70
53254;DHT22;39148;53.332;6.922;2022-08-21T13:38:13;24.00;75.70
53254;DHT22;39148;53.332;6.922;2022-08-21T13:40:46;24.00;75.50
53254;DHT22;39148;53.332;6.922;2022-08-21T13:43:18;24.00;75.60
53254;DHT22;39148;53.332;6.922;2022-08-21T13:45:52;24.00;75.60
53254;DHT22;39148;53.332;6.922;2022-08-21T13:48:18;24.10;75.70
53254;DHT22;39148;53.332;6.922;2022-08-21T13:50:45;24.00;75.50
53254;DHT22;39148;53.332;6.922;2022-08-21T13:55:48;24.10;75.60
53254;DHT22;39148;53.332;6.922;2022-08-21T13:58:27;24.10;75.40
53254;DHT22;39148;53.332;6.922;2022-08-21T14:00:55;24.10;75.60
53254;DHT22;39148;53.332;6.922;2022-08-21T14:05:56;24.10;75.50
53254;DHT22;39148;53.332;6.922;2022-08-21T14:08:37;24.10;75.40
53254;DHT22;39148;53.332;6.922;2022-08-21T14:11:06;24.00;75.60
53254;DHT22;39148;53.332;6.922;2022-08-21T14:13:44;24.30;75.50
53254;DHT22;39148;53.332;6.922;2022-08-21T14:16:17;24.20;75.60
53254;DHT22;39148;53.332;6.922;2022-08-21T14:21:45;24.30;74.30
53254;DHT22;39148;53.332;6.922;2022-08-21T14:27:06;24.30;75.70
53254;DHT22;39148;53.332;6.922;2022-08-21T14:29:36;24.30;74.30
53254;DHT22;39148;53.332;6.922;2022-08-21T14:32:22;24.30;75.40
53254;DHT22;39148;53.332;6.922;2022-08-21T14:34:51;24.30;74.30
53254;DHT22;39148;53.332;6.922;2022-08-21T14:37:17;24.30;75.40
53254;DHT22;39148;53.332;6.922;2022-08-21T14:39:43;24.30;75.20
53254;DHT22;39148;53.332;6.922;2022-08-21T14:42:09;24.30;75.20
53254;DHT22;39148;53.332;6.922;2022-08-21T14:44:34;24.40;75.40
53254;DHT22;39148;53.332;6.922;2022-08-21T14:47:00;24.40;75.30
53254;DHT22;39148;53.332;6.922;2022-08-21T14:49:28;24.40;75.10
53254;DHT22;39148;53.332;6.922;2022-08-21T14:51:56;24.40;75.30
53254;DHT22;39148;53.332;6.922;2022-08-21T14:54:27;24.40;75.30
53254;DHT22;39148;53.332;6.922;2022-08-21T14:56:52;24.60;75.50
53254;DHT22;39148;53.332;6.922;2022-08-21T14:59:20;24.40;75.50
53254;DHT22;39148;53.332;6.922;2022-08-21T15:01:47;24.50;75.20
53254;DHT22;39148;53.332;6.922;2022-08-21T15:04:13;24.50;75.20
53254;DHT22;39148;53.332;6.922;2022-08-21T15:06:39;24.50;75.10
53254;DHT22;39148;53.332;6.922;2022-08-21T15:09:05;24.50;75.00
53254;DHT22;39148;53.332;6.922;2022-08-21T15:11:32;24.70;75.10
53254;DHT22;39148;53.332;6.922;2022-08-21T15:14:02;24.60;75.10
53254;DHT22;39148;53.332;6.922;2022-08-21T15:16:29;24.50;75.10
53254;DHT22;39148;53.332;6.922;2022-08-21T15:18:56;24.60;75.00
53254;DHT22;39148;53.332;6.922;2022-08-21T15:21:22;24.60;75.00
53254;DHT22;39148;53.332;6.922;2022-08-21T15:23:48;24.50;74.80
53254;DHT22;39148;53.332;6.922;2022-08-21T15:26:14;24.50;74.80
53254;DHT22;39148;53.332;6.922;2022-08-21T15:28:40;24.60;74.80
53254;DHT22;39148;53.332;6.922;2022-08-21T15:31:06;24.60;74.90
53254;DHT22;39148;53.332;6.922;2022-08-21T15:33:32;24.60;74.80
53254;DHT22;39148;53.332;6.922;2022-08-21T15:35:58;24.60;74.70
53254;DHT22;39148;53.332;6.922;2022-08-21T15:38:24;24.60;74.70
53254;DHT22;39148;53.332;6.922;2022-08-21T15:40:50;24.60;74.70
53254;DHT22;39148;53.332;6.922;2022-08-21T15:43:28;24.70;74.80
53254;DHT22;39148;53.332;6.922;2022-08-21T15:45:55;24.70;73.70
53254;DHT22;39148;53.332;6.922;2022-08-21T15:48:21;24.70;74.70
53254;DHT22;39148;53.332;6.922;2022-08-21T15:50:47;24.70;74.70
53254;DHT22;39148;53.332;6.922;2022-08-21T15:53:13;24.60;74.70
53254;DHT22;39148;53.332;6.922;2022-08-21T15:55:39;24.70;74.70
53254;DHT22;39148;53.332;6.922;2022-08-21T15:58:06;24.70;74.70
53254;DHT22;39148;53.332;6.922;2022-08-21T16:00:35;24.60;74.60
53254;DHT22;39148;53.332;6.922;2022-08-21T16:03:03;24.60;74.80
53254;DHT22;39148;53.332;6.922;2022-08-21T16:05:29;24.60;74.70
53254;DHT22;39148;53.332;6.922;2022-08-21T16:07:55;24.70;74.60
53254;DHT22;39148;53.332;6.922;2022-08-21T16:10:23;24.70;74.50
53254;DHT22;39148;53.332;6.922;2022-08-21T16:12:56;24.50;74.70
53254;DHT22;39148;53.332;6.922;2022-08-21T16:15:23;24.60;74.80
53254;DHT22;39148;53.332;6.922;2022-08-21T16:17:50;24.60;74.60
53254;DHT22;39148;53.332;6.922;2022-08-21T16:20:23;24.70;74.80
53254;DHT22;39148;53.332;6.922;2022-08-21T16:22:50;24.70;74.80
53254;DHT22;39148;53.332;6.922;2022-08-21T16:25:16;24.60;74.70
53254;DHT22;39148;53.332;6.922;2022-08-21T16:27:45;24.60;74.50
53254;DHT22;39148;53.332;6.922;2022-08-21T16:30:12;24.70;74.80
53254;DHT22;39148;53.332;6.922;2022-08-21T16:32:40;24.70;74.50
53254;DHT22;39148;53.332;6.922;2022-08-21T16:35:06;24.70;74.70
53254;DHT22;39148;53.332;6.922;2022-08-21T16:37:32;24.70;74.40
53254;DHT22;39148;53.332;6.922;2022-08-21T16:39:58;24.70;74.60
53254;DHT22;39148;53.332;6.922;2022-08-21T16:42:24;24.70;74.60
53254;DHT22;39148;53.332;6.922;2022-08-21T16:44:52;24.70;74.70
53254;DHT22;39148;53.332;6.922;2022-08-21T16:47:18;24.70;74.70
53254;DHT22;39148;53.332;6.922;2022-08-21T16:49:43;24.70;74.60
53254;DHT22;39148;53.332;6.922;2022-08-21T16:52:11;24.60;74.60
53254;DHT22;39148;53.332;6.922;2022-08-21T16:54:37;24.70;74.70
53254;DHT22;39148;53.332;6.922;2022-08-21T16:57:02;24.70;74.70
53254;DHT22;39148;53.332;6.922;2022-08-21T16:59:28;24.60;74.50
53254;DHT22;39148;53.332;6.922;2022-08-21T17:01:54;24.60;74.50
53254;DHT22;39148;53.332;6.922;2022-08-21T17:04:20;24.70;74.70